sensor_id;sensor_type;location;lat;lon;timestamp;P1;durP1;ratioP1;P2;durP2;ratioP2
56122;SDS011;42426;46.104;19.656;2022-12-29T00:02:25;22.60;;;14.05;;
56122;SDS011;42426;46.104;19.656;2022-12-29T00:04:51;24.20;;;14.63;;
56122;SDS011;42426;46.104;19.656;2022-12-29T00:07:17;22.83;;;14.45;;
56122;SDS011;42426;46.104;19.656;2022-12-29T00:09:43;27.35;;;14.68;;
56122;SDS011;42426;46.104;19.656;2022-12-29T00:12:10;25.98;;;15.25;;
56122;SDS011;42426;46.104;19.656;2022-12-29T00:14:35;26.58;;;14.52;;
56122;SDS011;42426;46.104;19.656;2022-12-29T00:17:20;26.85;;;15.43;;
56122;SDS011;42426;46.104;19.656;2022-12-29T00:23:01;39.22;;;20.33;;
56122;SDS011;42426;46.104;19.656;2022-12-29T00:25:45;48.40;;;23.23;;
56122;SDS011;42426;46.104;19.656;2022-12-29T00:28:30;34.22;;;18.40;;
56122;SDS011;42426;46.104;19.656;2022-12-29T00:31:14;29.08;;;16.83;;
56122;SDS011;42426;46.104;19.656;2022-12-29T00:33:58;29.02;;;18.00;;
56122;SDS011;42426;46.104;19.656;2022-12-29T00:36:44;34.80;;;18.00;;
56122;SDS011;42426;46.104;19.656;2022-12-29T00:39:12;32.78;;;17.13;;
56122;SDS011;42426;46.104;19.656;2022-12-29T00:42:03;33.90;;;20.05;;
56122;SDS011;42426;46.104;19.656;2022-12-29T00:45:05;33.90;;;19.73;;
56122;SDS011;42426;46.104;19.656;2022-12-29T00:47:31;34.15;;;19.45;;
56122;SDS011;42426;46.104;19.656;2022-12-29T00:49:57;38.72;;;20.58;;
56122;SDS011;42426;46.104;19.656;2022-12-29T00:52:22;34.80;;;20.88;;
56122;SDS011;42426;46.104;19.656;2022-12-29T00:54:48;34.72;;;18.55;;
56122;SDS011;42426;46.104;19.656;2022-12-29T00:57:14;32.00;;;18.92;;
56122;SDS011;42426;46.104;19.656;2022-12-29T00:59:40;34.50;;;20.67;;
56122;SDS011;42426;46.104;19.656;2022-12-29T01:02:07;29.98;;;20.48;;
56122;SDS011;42426;46.104;19.656;2022-12-29T01:04:33;33.15;;;17.80;;
56122;SDS011;42426;46.104;19.656;2022-12-29T01:06:58;32.22;;;19.60;;
56122;SDS011;42426;46.104;19.656;2022-12-29T01:09:24;34.65;;;20.17;;
56122;SDS011;42426;46.104;19.656;2022-12-29T01:12:09;33.10;;;19.95;;
56122;SDS011;42426;46.104;19.656;2022-12-29T01:14:35;36.33;;;21.25;;
56122;SDS011;42426;46.104;19.656;2022-12-29T01:17:03;34.35;;;18.25;;
56122;SDS011;42426;46.104;19.656;2022-12-29T01:19:29;34.15;;;19.35;;
56122;SDS011;42426;46.104;19.656;2022-12-29T01:21:55;36.45;;;18.67;;
56122;SDS011;42426;46.104;19.656;2022-12-29T01:24:21;34.28;;;19.65;;
56122;SDS011;42426;46.104;19.656;2022-12-29T01:26:47;29.13;;;17.23;;
56122;SDS011;42426;46.104;19.656;2022-12-29T01:29:13;32.55;;;21.20;;
56122;SDS011;42426;46.104;19.656;2022-12-29T01:31:39;33.40;;;18.50;;
56122;SDS011;42426;46.104;19.656;2022-12-29T01:34:05;30.73;;;16.85;;
56122;SDS011;42426;46.104;19.656;2022-12-29T01:36:31;35.33;;;19.27;;
56122;SDS011;42426;46.104;19.656;2022-12-29T01:38:57;35.83;;;18.15;;
56122;SDS011;42426;46.104;19.656;2022-12-29T01:41:22;28.00;;;17.90;;
56122;SDS011;42426;46.104;19.656;2022-12-29T01:49:19;29.63;;;17.30;;
56122;SDS011;42426;46.104;19.656;2022-12-29T01:51:58;31.83;;;17.73;;
56122;SDS011;42426;46.104;19.656;2022-12-29T01:54:30;31.08;;;17.08;;
56122;SDS011;42426;46.104;19.656;2022-12-29T01:56:59;28.38;;;17.20;;
56122;SDS011;42426;46.104;19.656;2022-12-29T01:59:29;31.80;;;18.33;;
56122;SDS011;42426;46.104;19.656;2022-12-29T02:01:57;29.88;;;18.35;;
56122;SDS011;42426;46.104;19.656;2022-12-29T02:04:24;29.92;;;17.02;;
56122;SDS011;42426;46.104;19.656;2022-12-29T02:06:53;29.15;;;17.77;;
56122;SDS011;42426;46.104;19.656;2022-12-29T02:09:26;32.95;;;18.20;;
56122;SDS011;42426;46.104;19.656;2022-12-29T02:11:52;29.58;;;17.67;;
56122;SDS011;42426;46.104;19.656;2022-12-29T02:14:18;29.45;;;16.50;;
56122;SDS011;42426;46.104;19.656;2022-12-29T02:39:05;28.77;;;17.63;;
56122;SDS011;42426;46.104;19.656;2022-12-29T02:42:03;29.83;;;17.92;;
56122;SDS011;42426;46.104;19.656;2022-12-29T02:50:20;31.27;;;18.43;;
56122;SDS011;42426;46.104;19.656;2022-12-29T02:52:51;32.67;;;18.60;;
56122;SDS011;42426;46.104;19.656;2022-12-29T02:55:26;32.55;;;19.38;;
56122;SDS011;42426;46.104;19.656;2022-12-29T03:08:49;32.90;;;17.58;;
56122;SDS011;42426;46.104;19.656;2022-12-29T03:11:33;31.95;;;19.10;;
56122;SDS011;42426;46.104;19.656;2022-12-29T03:14:27;29.98;;;18.52;;
56122;SDS011;42426;46.104;19.656;2022-12-29T03:20:38;35.15;;;20.67;;
56122;SDS011;42426;46.104;19.656;2022-12-29T03:23:06;32.03;;;19.42;;
56122;SDS011;42426;46.104;19.656;2022-12-29T03:25:37;32.60;;;20.20;;
56122;SDS011;42426;46.104;19.656;2022-12-29T03:28:06;28.95;;;17.88;;
56122;SDS011;42426;46.104;19.656;2022-12-29T03:30:36;32.70;;;18.95;;
56122;SDS011;42426;46.104;19.656;2022-12-29T03:33:03;32.17;;;19.20;;
56122;SDS011;42426;46.104;19.656;2022-12-29T03:35:30;32.05;;;18.65;;
56122;SDS011;42426;46.104;19.656;2022-12-29T03:37:59;29.95;;;18.35;;
56122;SDS011;42426;46.104;19.656;2022-12-29T03:40:28;35.92;;;19.85;;
56122;SDS011;42426;46.104;19.656;2022-12-29T03:42:56;35.03;;;20.33;;
56122;SDS011;42426;46.104;19.656;2022-12-29T03:45:22;33.60;;;19.92;;
56122;SDS011;42426;46.104;19.656;2022-12-29T03:47:48;39.38;;;20.65;;
56122;SDS011;42426;46.104;19.656;2022-12-29T03:50:14;31.42;;;19.77;;
56122;SDS011;42426;46.104;19.656;2022-12-29T03:52:39;33.17;;;20.25;;
56122;SDS011;42426;46.104;19.656;2022-12-29T03:55:05;32.88;;;21.70;;
56122;SDS011;42426;46.104;19.656;2022-12-29T03:57:31;34.60;;;20.67;;
56122;SDS011;42426;46.104;19.656;2022-12-29T03:59:57;32.08;;;20.30;;
56122;SDS011;42426;46.104;19.656;2022-12-29T04:02:23;34.58;;;18.58;;
56122;SDS011;42426;46.104;19.656;2022-12-29T04:04:48;35.50;;;20.20;;
56122;SDS011;42426;46.104;19.656;2022-12-29T04:07:14;32.45;;;21.30;;
56122;SDS011;42426;46.104;19.656;2022-12-29T04:09:40;35.45;;;21.38;;
56122;SDS011;42426;46.104;19.656;2022-12-29T04:12:05;39.58;;;23.08;;
56122;SDS011;42426;46.104;19.656;2022-12-29T04:14:31;34.40;;;20.80;;
56122;SDS011;42426;46.104;19.656;2022-12-29T04:16:57;34.40;;;20.25;;
56122;SDS011;42426;46.104;19.656;2022-12-29T04:19:23;35.33;;;21.65;;
56122;SDS011;42426;46.104;19.656;2022-12-29T04:21:49;40.90;;;21.75;;
56122;SDS011;42426;46.104;19.656;2022-12-29T04:24:16;31.48;;;21.58;;
56122;SDS011;42426;46.104;19.656;2022-12-29T04:26:42;38.97;;;22.33;;
56122;SDS011;42426;46.104;19.656;2022-12-29T04:29:09;37.15;;;21.33;;
56122;SDS011;42426;46.104;19.656;2022-12-29T04:31:35;32.63;;;20.58;;
56122;SDS011;42426;46.104;19.656;2022-12-29T04:34:01;35.08;;;20.88;;
56122;SDS011;42426;46.104;19.656;2022-12-29T04:36:26;35.28;;;22.35;;
56122;SDS011;42426;46.104;19.656;2022-12-29T04:38:53;35.25;;;20.55;;
56122;SDS011;42426;46.104;19.656;2022-12-29T04:41:19;31.13;;;19.50;;
56122;SDS011;42426;46.104;19.656;2022-12-29T04:43:45;33.40;;;19.92;;
56122;SDS011;42426;46.104;19.656;2022-12-29T04:46:11;34.50;;;21.05;;
56122;SDS011;42426;46.104;19.656;2022-12-29T04:48:37;37.30;;;21.42;;
56122;SDS011;42426;46.104;19.656;2022-12-29T04:51:02;39.00;;;21.80;;
56122;SDS011;42426;46.104;19.656;2022-12-29T04:53:28;36.92;;;20.92;;
56122;SDS011;42426;46.104;19.656;2022-12-29T04:55:54;33.75;;;21.15;;
56122;SDS011;42426;46.104;19.656;2022-12-29T04:58:20;35.88;;;22.08;;
56122;SDS011;42426;46.104;19.656;2022-12-29T05:00:46;34.22;;;21.33;;
56122;SDS011;42426;46.104;19.656;2022-12-29T05:03:12;38.17;;;21.45;;
56122;SDS011;42426;46.104;19.656;2022-12-29T05:05:37;35.25;;;22.25;;
56122;SDS011;42426;46.104;19.656;2022-12-29T05:08:05;32.38;;;20.23;;
56122;SDS011;42426;46.104;19.656;2022-12-29T05:10:31;36.17;;;21.05;;
56122;SDS011;42426;46.104;19.656;2022-12-29T05:12:57;38.60;;;21.00;;
56122;SDS011;42426;46.104;19.656;2022-12-29T05:15:23;41.67;;;21.80;;
56122;SDS011;42426;46.104;19.656;2022-12-29T05:20:42;36.23;;;22.13;;
56122;SDS011;42426;46.104;19.656;2022-12-29T05:23:08;38.17;;;21.80;;
56122;SDS011;42426;46.104;19.656;2022-12-29T05:25:35;38.22;;;21.17;;
56122;SDS011;42426;46.104;19.656;2022-12-29T05:28:01;39.88;;;23.05;;
56122;SDS011;42426;46.104;19.656;2022-12-29T05:30:27;36.42;;;20.63;;
56122;SDS011;42426;46.104;19.656;2022-12-29T05:32:52;33.92;;;20.48;;
56122;SDS011;42426;46.104;19.656;2022-12-29T05:35:18;33.22;;;18.90;;
56122;SDS011;42426;46.104;19.656;2022-12-29T05:37:44;31.75;;;20.65;;
56122;SDS011;42426;46.104;19.656;2022-12-29T05:40:10;33.92;;;18.85;;
56122;SDS011;42426;46.104;19.656;2022-12-29T05:42:36;29.77;;;19.77;;
56122;SDS011;42426;46.104;19.656;2022-12-29T05:45:01;33.85;;;18.48;;
56122;SDS011;42426;46.104;19.656;2022-12-29T05:47:27;33.45;;;19.80;;
56122;SDS011;42426;46.104;19.656;2022-12-29T05:49:53;35.70;;;19.70;;
56122;SDS011;42426;46.104;19.656;2022-12-29T05:55:10;35.22;;;19.75;;
56122;SDS011;42426;46.104;19.656;2022-12-29T05:57:37;36.40;;;21.15;;
56122;SDS011;42426;46.104;19.656;2022-12-29T06:00:04;36.75;;;21.17;;
56122;SDS011;42426;46.104;19.656;2022-12-29T06:02:32;36.85;;;20.60;;
56122;SDS011;42426;46.104;19.656;2022-12-29T06:04:58;37.95;;;21.45;;
56122;SDS011;42426;46.104;19.656;2022-12-29T06:07:25;37.38;;;19.23;;
56122;SDS011;42426;46.104;19.656;2022-12-29T06:09:51;38.90;;;22.58;;
56122;SDS011;42426;46.104;19.656;2022-12-29T06:12:19;39.58;;;20.67;;
56122;SDS011;42426;46.104;19.656;2022-12-29T06:14:45;41.88;;;23.02;;
56122;SDS011;42426;46.104;19.656;2022-12-29T06:17:11;39.25;;;22.13;;
56122;SDS011;42426;46.104;19.656;2022-12-29T06:19:37;48.22;;;24.25;;
56122;SDS011;42426;46.104;19.656;2022-12-29T06:22:03;39.85;;;23.20;;
56122;SDS011;42426;46.104;19.656;2022-12-29T06:24:30;44.08;;;24.08;;
56122;SDS011;42426;46.104;19.656;2022-12-29T06:26:56;40.13;;;24.33;;
56122;SDS011;42426;46.104;19.656;2022-12-29T06:29:22;36.80;;;24.80;;
56122;SDS011;42426;46.104;19.656;2022-12-29T06:31:48;50.15;;;24.85;;
56122;SDS011;42426;46.104;19.656;2022-12-29T06:34:16;42.67;;;24.15;;
56122;SDS011;42426;46.104;19.656;2022-12-29T06:36:42;45.78;;;26.73;;
56122;SDS011;42426;46.104;19.656;2022-12-29T06:39:10;48.25;;;26.05;;
56122;SDS011;42426;46.104;19.656;2022-12-29T06:41:36;48.42;;;26.95;;
56122;SDS011;42426;46.104;19.656;2022-12-29T06:44:02;44.33;;;26.60;;
56122;SDS011;42426;46.104;19.656;2022-12-29T06:46:28;45.50;;;26.90;;
56122;SDS011;42426;46.104;19.656;2022-12-29T06:48:55;45.42;;;26.23;;
56122;SDS011;42426;46.104;19.656;2022-12-29T06:51:21;49.83;;;28.13;;
56122;SDS011;42426;46.104;19.656;2022-12-29T06:53:47;45.95;;;27.95;;
56122;SDS011;42426;46.104;19.656;2022-12-29T06:56:13;49.05;;;28.10;;
56122;SDS011;42426;46.104;19.656;2022-12-29T06:58:39;45.92;;;27.85;;
56122;SDS011;42426;46.104;19.656;2022-12-29T07:01:05;48.80;;;28.75;;
56122;SDS011;42426;46.104;19.656;2022-12-29T07:03:31;54.72;;;30.42;;
56122;SDS011;42426;46.104;19.656;2022-12-29T07:05:57;52.22;;;30.33;;
56122;SDS011;42426;46.104;19.656;2022-12-29T07:08:23;55.33;;;31.35;;
56122;SDS011;42426;46.104;19.656;2022-12-29T07:10:50;55.42;;;30.73;;
56122;SDS011;42426;46.104;19.656;2022-12-29T07:13:17;55.40;;;31.85;;
56122;SDS011;42426;46.104;19.656;2022-12-29T07:15:43;66.47;;;36.47;;
56122;SDS011;42426;46.104;19.656;2022-12-29T07:18:08;62.67;;;35.83;;
56122;SDS011;42426;46.104;19.656;2022-12-29T07:20:34;63.22;;;34.33;;
56122;SDS011;42426;46.104;19.656;2022-12-29T07:23:00;67.47;;;35.58;;
56122;SDS011;42426;46.104;19.656;2022-12-29T07:25:25;56.08;;;33.33;;
56122;SDS011;42426;46.104;19.656;2022-12-29T07:27:51;66.43;;;35.80;;
56122;SDS011;42426;46.104;19.656;2022-12-29T07:30:17;69.88;;;36.00;;
56122;SDS011;42426;46.104;19.656;2022-12-29T07:32:43;60.45;;;34.13;;
56122;SDS011;42426;46.104;19.656;2022-12-29T07:35:09;62.67;;;34.50;;
56122;SDS011;42426;46.104;19.656;2022-12-29T07:37:35;57.65;;;32.90;;
56122;SDS011;42426;46.104;19.656;2022-12-29T07:40:01;56.50;;;33.88;;
56122;SDS011;42426;46.104;19.656;2022-12-29T07:42:28;58.75;;;32.40;;
56122;SDS011;42426;46.104;19.656;2022-12-29T07:44:54;58.83;;;33.60;;
56122;SDS011;42426;46.104;19.656;2022-12-29T07:47:20;74.07;;;37.47;;
56122;SDS011;42426;46.104;19.656;2022-12-29T07:49:45;71.75;;;38.47;;
56122;SDS011;42426;46.104;19.656;2022-12-29T07:52:14;69.05;;;39.50;;
56122;SDS011;42426;46.104;19.656;2022-12-29T07:54:40;71.93;;;40.08;;
56122;SDS011;42426;46.104;19.656;2022-12-29T07:57:08;67.72;;;42.05;;
56122;SDS011;42426;46.104;19.656;2022-12-29T07:59:34;76.05;;;40.22;;
56122;SDS011;42426;46.104;19.656;2022-12-29T08:02:00;73.03;;;44.50;;
56122;SDS011;42426;46.104;19.656;2022-12-29T08:04:27;61.75;;;37.80;;
56122;SDS011;42426;46.104;19.656;2022-12-29T08:06:57;75.03;;;37.35;;
56122;SDS011;42426;46.104;19.656;2022-12-29T08:09:24;65.20;;;38.13;;
56122;SDS011;42426;46.104;19.656;2022-12-29T08:11:51;80.13;;;42.97;;
56122;SDS011;42426;46.104;19.656;2022-12-29T08:14:17;85.50;;;45.83;;
56122;SDS011;42426;46.104;19.656;2022-12-29T08:16:43;71.13;;;38.00;;
56122;SDS011;42426;46.104;19.656;2022-12-29T08:19:10;63.80;;;39.67;;
56122;SDS011;42426;46.104;19.656;2022-12-29T08:21:38;61.70;;;36.75;;
56122;SDS011;42426;46.104;19.656;2022-12-29T08:24:05;72.03;;;37.53;;
56122;SDS011;42426;46.104;19.656;2022-12-29T08:26:31;64.20;;;37.45;;
56122;SDS011;42426;46.104;19.656;2022-12-29T08:28:57;80.55;;;41.53;;
56122;SDS011;42426;46.104;19.656;2022-12-29T08:31:23;70.35;;;39.53;;
56122;SDS011;42426;46.104;19.656;2022-12-29T08:33:50;60.38;;;37.20;;
56122;SDS011;42426;46.104;19.656;2022-12-29T08:36:16;67.35;;;37.42;;
56122;SDS011;42426;46.104;19.656;2022-12-29T08:38:42;66.95;;;37.50;;
56122;SDS011;42426;46.104;19.656;2022-12-29T08:41:08;69.72;;;38.70;;
56122;SDS011;42426;46.104;19.656;2022-12-29T08:43:34;71.10;;;37.25;;
56122;SDS011;42426;46.104;19.656;2022-12-29T08:46:03;76.82;;;38.53;;
56122;SDS011;42426;46.104;19.656;2022-12-29T08:48:29;73.53;;;40.78;;
56122;SDS011;42426;46.104;19.656;2022-12-29T08:50:56;78.10;;;38.95;;
56122;SDS011;42426;46.104;19.656;2022-12-29T08:53:22;70.15;;;40.08;;
56122;SDS011;42426;46.104;19.656;2022-12-29T08:55:54;76.00;;;41.28;;
56122;SDS011;42426;46.104;19.656;2022-12-29T08:58:20;80.10;;;42.00;;
56122;SDS011;42426;46.104;19.656;2022-12-29T09:00:51;70.32;;;41.47;;
56122;SDS011;42426;46.104;19.656;2022-12-29T09:03:25;71.50;;;39.60;;
56122;SDS011;42426;46.104;19.656;2022-12-29T09:05:52;72.90;;;40.33;;
56122;SDS011;42426;46.104;19.656;2022-12-29T09:08:18;71.93;;;40.22;;
56122;SDS011;42426;46.104;19.656;2022-12-29T09:10:45;63.55;;;38.67;;
56122;SDS011;42426;46.104;19.656;2022-12-29T09:13:12;69.65;;;41.00;;
56122;SDS011;42426;46.104;19.656;2022-12-29T09:15:39;67.75;;;38.10;;
56122;SDS011;42426;46.104;19.656;2022-12-29T09:18:06;72.53;;;37.72;;
56122;SDS011;42426;46.104;19.656;2022-12-29T09:20:33;60.58;;;36.22;;
56122;SDS011;42426;46.104;19.656;2022-12-29T09:22:59;66.53;;;39.53;;
56122;SDS011;42426;46.104;19.656;2022-12-29T09:25:26;69.47;;;40.63;;
56122;SDS011;42426;46.104;19.656;2022-12-29T09:27:52;67.00;;;38.63;;
56122;SDS011;42426;46.104;19.656;2022-12-29T09:30:20;67.15;;;38.60;;
56122;SDS011;42426;46.104;19.656;2022-12-29T09:32:46;68.88;;;40.38;;
56122;SDS011;42426;46.104;19.656;2022-12-29T09:35:13;75.13;;;42.20;;
56122;SDS011;42426;46.104;19.656;2022-12-29T09:37:39;79.07;;;43.92;;
56122;SDS011;42426;46.104;19.656;2022-12-29T09:40:06;74.53;;;43.40;;
56122;SDS011;42426;46.104;19.656;2022-12-29T09:47:32;65.40;;;37.15;;
56122;SDS011;42426;46.104;19.656;2022-12-29T09:52:38;65.78;;;36.42;;
56122;SDS011;42426;46.104;19.656;2022-12-29T10:00:20;49.05;;;31.75;;
56122;SDS011;42426;46.104;19.656;2022-12-29T10:02:54;49.15;;;29.17;;
56122;SDS011;42426;46.104;19.656;2022-12-29T10:10:55;43.35;;;27.48;;
56122;SDS011;42426;46.104;19.656;2022-12-29T10:21:16;55.35;;;31.55;;
56122;SDS011;42426;46.104;19.656;2022-12-29T10:23:53;49.90;;;28.98;;
56122;SDS011;42426;46.104;19.656;2022-12-29T10:26:29;42.92;;;28.98;;
56122;SDS011;42426;46.104;19.656;2022-12-29T10:28:59;50.80;;;31.20;;
56122;SDS011;42426;46.104;19.656;2022-12-29T10:31:38;53.78;;;31.50;;
56122;SDS011;42426;46.104;19.656;2022-12-29T10:34:10;55.78;;;31.52;;
56122;SDS011;42426;46.104;19.656;2022-12-29T10:36:42;53.38;;;33.60;;
56122;SDS011;42426;46.104;19.656;2022-12-29T10:39:22;52.35;;;31.08;;
56122;SDS011;42426;46.104;19.656;2022-12-29T10:42:01;50.05;;;32.72;;
56122;SDS011;42426;46.104;19.656;2022-12-29T10:44:30;56.13;;;38.13;;
56122;SDS011;42426;46.104;19.656;2022-12-29T10:46:59;55.08;;;36.20;;
56122;SDS011;42426;46.104;19.656;2022-12-29T10:52:00;52.95;;;31.40;;
56122;SDS011;42426;46.104;19.656;2022-12-29T10:57:20;52.67;;;31.00;;
56122;SDS011;42426;46.104;19.656;2022-12-29T10:59:49;57.40;;;35.75;;
56122;SDS011;42426;46.104;19.656;2022-12-29T11:07:16;64.53;;;35.47;;
56122;SDS011;42426;46.104;19.656;2022-12-29T11:09:43;57.05;;;34.30;;
56122;SDS011;42426;46.104;19.656;2022-12-29T11:17:56;55.22;;;31.58;;
56122;SDS011;42426;46.104;19.656;2022-12-29T11:34:25;51.60;;;31.70;;
56122;SDS011;42426;46.104;19.656;2022-12-29T11:37:03;59.08;;;31.45;;
56122;SDS011;42426;46.104;19.656;2022-12-29T11:39:44;50.22;;;31.98;;
56122;SDS011;42426;46.104;19.656;2022-12-29T11:42:19;56.80;;;34.72;;
56122;SDS011;42426;46.104;19.656;2022-12-29T11:44:48;51.33;;;31.92;;
56122;SDS011;42426;46.104;19.656;2022-12-29T11:47:25;53.15;;;33.25;;
56122;SDS011;42426;46.104;19.656;2022-12-29T11:49:57;49.45;;;31.95;;
56122;SDS011;42426;46.104;19.656;2022-12-29T11:52:29;58.13;;;34.65;;
56122;SDS011;42426;46.104;19.656;2022-12-29T11:55:00;61.75;;;35.60;;
56122;SDS011;42426;46.104;19.656;2022-12-29T11:57:29;63.67;;;37.33;;
56122;SDS011;42426;46.104;19.656;2022-12-29T11:59:59;73.80;;;38.25;;
56122;SDS011;42426;46.104;19.656;2022-12-29T12:04:58;65.97;;;38.72;;
56122;SDS011;42426;46.104;19.656;2022-12-29T12:07:50;79.13;;;44.45;;
56122;SDS011;42426;46.104;19.656;2022-12-29T12:16:41;77.63;;;43.78;;
56122;SDS011;42426;46.104;19.656;2022-12-29T12:21:50;74.20;;;46.63;;
56122;SDS011;42426;46.104;19.656;2022-12-29T12:35:12;74.28;;;41.53;;
56122;SDS011;42426;46.104;19.656;2022-12-29T12:37:52;61.13;;;36.70;;
56122;SDS011;42426;46.104;19.656;2022-12-29T13:00:15;51.47;;;32.60;;
56122;SDS011;42426;46.104;19.656;2022-12-29T13:05:27;47.50;;;29.27;;
56122;SDS011;42426;46.104;19.656;2022-12-29T13:10:53;50.92;;;30.98;;
56122;SDS011;42426;46.104;19.656;2022-12-29T13:19:10;47.95;;;29.88;;
56122;SDS011;42426;46.104;19.656;2022-12-29T13:21:30;56.08;;;33.97;;
56122;SDS011;42426;46.104;19.656;2022-12-29T13:24:15;62.88;;;36.33;;
56122;SDS011;42426;46.104;19.656;2022-12-29T13:26:49;58.85;;;34.78;;
56122;SDS011;42426;46.104;19.656;2022-12-29T13:29:21;60.33;;;33.22;;
56122;SDS011;42426;46.104;19.656;2022-12-29T13:36:51;59.55;;;36.25;;
56122;SDS011;42426;46.104;19.656;2022-12-29T13:39:23;60.03;;;36.72;;
56122;SDS011;42426;46.104;19.656;2022-12-29T13:41:51;66.32;;;37.08;;
56122;SDS011;42426;46.104;19.656;2022-12-29T13:46:54;53.60;;;34.42;;
56122;SDS011;42426;46.104;19.656;2022-12-29T13:49:22;57.92;;;35.55;;
56122;SDS011;42426;46.104;19.656;2022-12-29T13:51:58;56.92;;;36.10;;
56122;SDS011;42426;46.104;19.656;2022-12-29T13:56:54;55.80;;;32.50;;
56122;SDS011;42426;46.104;19.656;2022-12-29T14:04:33;52.63;;;31.00;;
56122;SDS011;42426;46.104;19.656;2022-12-29T14:07:02;53.10;;;31.83;;
56122;SDS011;42426;46.104;19.656;2022-12-29T14:12:01;48.67;;;29.13;;
56122;SDS011;42426;46.104;19.656;2022-12-29T14:14:28;42.92;;;27.88;;
56122;SDS011;42426;46.104;19.656;2022-12-29T14:17:20;44.28;;;28.98;;
56122;SDS011;42426;46.104;19.656;2022-12-29T14:19:44;50.35;;;29.67;;
56122;SDS011;42426;46.104;19.656;2022-12-29T14:22:11;60.95;;;33.75;;
56122;SDS011;42426;46.104;19.656;2022-12-29T14:29:47;63.70;;;40.30;;
56122;SDS011;42426;46.104;19.656;2022-12-29T14:35:36;67.70;;;39.80;;
56122;SDS011;42426;46.104;19.656;2022-12-29T14:37:49;65.00;;;40.20;;
56122;SDS011;42426;46.104;19.656;2022-12-29T14:40:32;63.13;;;38.22;;
56122;SDS011;42426;46.104;19.656;2022-12-29T14:42:59;54.42;;;35.80;;
56122;SDS011;42426;46.104;19.656;2022-12-29T14:45:27;54.65;;;34.30;;
56122;SDS011;42426;46.104;19.656;2022-12-29T14:47:54;49.67;;;32.15;;
56122;SDS011;42426;46.104;19.656;2022-12-29T14:50:45;54.20;;;32.72;;
56122;SDS011;42426;46.104;19.656;2022-12-29T14:55:55;48.08;;;29.75;;
56122;SDS011;42426;46.104;19.656;2022-12-29T14:58:29;42.03;;;28.73;;
56122;SDS011;42426;46.104;19.656;2022-12-29T15:00:57;57.13;;;33.33;;
56122;SDS011;42426;46.104;19.656;2022-12-29T15:05:59;56.75;;;34.95;;
56122;SDS011;42426;46.104;19.656;2022-12-29T15:08:33;59.03;;;33.17;;
56122;SDS011;42426;46.104;19.656;2022-12-29T15:11:02;60.83;;;34.88;;
56122;SDS011;42426;46.104;19.656;2022-12-29T15:13:35;68.90;;;40.40;;
56122;SDS011;42426;46.104;19.656;2022-12-29T15:16:02;74.22;;;44.65;;
56122;SDS011;42426;46.104;19.656;2022-12-29T15:18:29;70.53;;;41.25;;
56122;SDS011;42426;46.104;19.656;2022-12-29T15:20:57;75.10;;;42.75;;
56122;SDS011;42426;46.104;19.656;2022-12-29T15:23:23;70.55;;;41.63;;
56122;SDS011;42426;46.104;19.656;2022-12-29T15:25:59;66.72;;;39.70;;
56122;SDS011;42426;46.104;19.656;2022-12-29T15:28:36;68.43;;;40.53;;
56122;SDS011;42426;46.104;19.656;2022-12-29T15:31:03;65.40;;;35.65;;
56122;SDS011;42426;46.104;19.656;2022-12-29T15:33:30;58.70;;;37.30;;
56122;SDS011;42426;46.104;19.656;2022-12-29T15:35:57;59.95;;;37.08;;
56122;SDS011;42426;46.104;19.656;2022-12-29T15:38:28;56.78;;;36.72;;
56122;SDS011;42426;46.104;19.656;2022-12-29T15:40:56;61.85;;;35.55;;
56122;SDS011;42426;46.104;19.656;2022-12-29T15:43:39;49.75;;;30.50;;
56122;SDS011;42426;46.104;19.656;2022-12-29T15:46:10;51.88;;;33.88;;
56122;SDS011;42426;46.104;19.656;2022-12-29T15:48:39;51.28;;;31.10;;
56122;SDS011;42426;46.104;19.656;2022-12-29T15:51:39;45.15;;;29.88;;
56122;SDS011;42426;46.104;19.656;2022-12-29T15:53:58;41.72;;;26.70;;
56122;SDS011;42426;46.104;19.656;2022-12-29T15:56:24;40.75;;;26.42;;
56122;SDS011;42426;46.104;19.656;2022-12-29T15:58:53;46.17;;;27.15;;
56122;SDS011;42426;46.104;19.656;2022-12-29T16:03:55;64.72;;;37.60;;
56122;SDS011;42426;46.104;19.656;2022-12-29T16:06:38;72.40;;;42.67;;
56122;SDS011;42426;46.104;19.656;2022-12-29T16:12:26;85.57;;;47.35;;
56122;SDS011;42426;46.104;19.656;2022-12-29T16:14:32;81.80;;;45.78;;
56122;SDS011;42426;46.104;19.656;2022-12-29T16:17:00;75.28;;;42.45;;
56122;SDS011;42426;46.104;19.656;2022-12-29T16:21:56;80.47;;;45.72;;
56122;SDS011;42426;46.104;19.656;2022-12-29T16:24:25;72.18;;;43.40;;
56122;SDS011;42426;46.104;19.656;2022-12-29T16:26:56;76.55;;;46.17;;
56122;SDS011;42426;46.104;19.656;2022-12-29T16:29:25;75.13;;;42.80;;
56122;SDS011;42426;46.104;19.656;2022-12-29T16:31:55;78.03;;;48.20;;
56122;SDS011;42426;46.104;19.656;2022-12-29T16:39:47;71.90;;;39.08;;
56122;SDS011;42426;46.104;19.656;2022-12-29T16:42:43;73.13;;;40.15;;
56122;SDS011;42426;46.104;19.656;2022-12-29T16:48:27;67.88;;;39.22;;
56122;SDS011;42426;46.104;19.656;2022-12-29T16:50:39;59.53;;;35.55;;
56122;SDS011;42426;46.104;19.656;2022-12-29T16:53:20;67.40;;;36.17;;
56122;SDS011;42426;46.104;19.656;2022-12-29T16:55:51;58.58;;;34.78;;
56122;SDS011;42426;46.104;19.656;2022-12-29T16:58:21;74.20;;;35.88;;
56122;SDS011;42426;46.104;19.656;2022-12-29T17:00:49;80.30;;;42.50;;
56122;SDS011;42426;46.104;19.656;2022-12-29T17:03:19;83.85;;;47.13;;
56122;SDS011;42426;46.104;19.656;2022-12-29T17:05:45;76.60;;;45.10;;
56122;SDS011;42426;46.104;19.656;2022-12-29T17:08:17;82.20;;;44.45;;
56122;SDS011;42426;46.104;19.656;2022-12-29T17:10:49;82.95;;;49.55;;
56122;SDS011;42426;46.104;19.656;2022-12-29T17:13:37;88.90;;;46.35;;
56122;SDS011;42426;46.104;19.656;2022-12-29T17:16:04;87.43;;;47.58;;
56122;SDS011;42426;46.104;19.656;2022-12-29T17:18:32;82.03;;;45.67;;
56122;SDS011;42426;46.104;19.656;2022-12-29T17:20:59;76.53;;;44.50;;
56122;SDS011;42426;46.104;19.656;2022-12-29T17:23:25;78.53;;;45.20;;
56122;SDS011;42426;46.104;19.656;2022-12-29T17:25:51;78.53;;;46.00;;
56122;SDS011;42426;46.104;19.656;2022-12-29T17:28:19;79.05;;;46.95;;
56122;SDS011;42426;46.104;19.656;2022-12-29T17:30:54;82.88;;;48.80;;
56122;SDS011;42426;46.104;19.656;2022-12-29T17:33:24;74.38;;;44.80;;
56122;SDS011;42426;46.104;19.656;2022-12-29T17:35:51;75.50;;;45.70;;
56122;SDS011;42426;46.104;19.656;2022-12-29T17:38:18;73.85;;;44.90;;
56122;SDS011;42426;46.104;19.656;2022-12-29T17:40:49;76.68;;;44.05;;
56122;SDS011;42426;46.104;19.656;2022-12-29T17:43:34;82.90;;;47.75;;
56122;SDS011;42426;46.104;19.656;2022-12-29T17:46:02;77.75;;;44.78;;
56122;SDS011;42426;46.104;19.656;2022-12-29T17:48:31;73.57;;;44.78;;
56122;SDS011;42426;46.104;19.656;2022-12-29T17:50:56;70.07;;;41.03;;
56122;SDS011;42426;46.104;19.656;2022-12-29T17:53:24;78.50;;;42.55;;
56122;SDS011;42426;46.104;19.656;2022-12-29T17:55:52;76.32;;;41.78;;